This is the latest recevied weather packets stored in our database for station/object WC4PEM-9. If no packets are shown the sender has not sent any weather packets the latest 10 day(s).
| Time | Temp. | Humidity | Pressure | Rain* | Wind** | Luminosity | Snow |
|---|---|---|---|---|---|---|---|
| 1777755309 | 20° C | 93% | 1010.4 hPa | 2.54 mm | - | - | - |
| 1777755256 | 20° C | 93% | 1010.4 hPa | 2.54 mm | - | - | - |
| 1777755217 | 20° C | 93% | 1010.4 hPa | 2.54 mm | - | - | - |
| 1777754917 | 20° C | 93% | 1010.2 hPa | 3.3 mm | - | - | - |
| 1777754766 | 20° C | 93% | 1010.1 hPa | 3.3 mm | - | - | - |
| 1777754617 | 20° C | 93% | 1010.1 hPa | 3.3 mm | - | - | - |
| 1777754501 | 20° C | 93% | 1010.2 hPa | 3.3 mm | - | - | - |
| 1777754317 | 20° C | 93% | 1010.2 hPa | 3.3 mm | - | - | - |
| 1777754069 | 20° C | 93% | 1010.5 hPa | 2.79 mm | - | - | - |
| 1777754017 | 20° C | 93% | 1010.3 hPa | 3.05 mm | - | - | - |
| 1777753717 | 20° C | 93% | 1010.5 hPa | 2.79 mm | - | - | - |
| 1777753624 | 20° C | 92% | 1010.6 hPa | 2.79 mm | - | - | - |
| 1777753417 | 20° C | 92% | 1010.6 hPa | 2.79 mm | - | - | - |
| 1777753304 | 20° C | 92% | 1010.6 hPa | 2.79 mm | - | - | - |
| 1777753117 | 20° C | 92% | 1010.6 hPa | 2.79 mm | - | - | - |
| 1777753085 | 20° C | 92% | 1011.1 hPa | 2.79 mm | - | - | - |
| 1777752817 | 20° C | 92% | 1011.1 hPa | 2.79 mm | - | - | - |
| 1777752707 | 20° C | 91% | 1011.2 hPa | 2.79 mm | - | - | - |
| 1777752517 | 20° C | 91% | 1011.2 hPa | 2.79 mm | - | - | - |
| 1777752217 | 20.56° C | 91% | 1011.1 hPa | 2.54 mm | - | - | - |
| 1777751917 | 20.56° C | 89% | 1011.7 hPa | 1.78 mm | - | - | - |
| 1777751617 | 21.11° C | 86% | 1011.6 hPa | 0.76 mm | - | - | - |
| 1777751504 | 23.89° C | 76% | 1012.1 hPa | 0 mm | - | - | - |
| 1777751317 | 23.89° C | 76% | 1012.1 hPa | 0 mm | - | - | - |
| 1777751165 | 27.22° C | 78% | 1011 hPa | 0 mm | - | - | - |
* Rain latest hour (hover to see other rain measurements)
** Current wind speed in m/s (hover to see current wind gust speed)